Tiempo atmosférico en la estación meteorológica de Silleda, Pontevedra (422 m.)



Fecha
DESCASC
Temp. máxima en grados centígrados (hora)
DESCASC
Temp. mínima en grados centígrados (hora)
DESCASC
Temp. media en grados centígrados
DESCASC
Racha de viento máxima en m/sg (hora)
DESCASC
Velocidad máxima media en intervalos de 10 minutos(hora)
DESCASC
Precipitaciones diarias en mm
DESCASC
Precipitaciones de 00:00 a 06:00 en mm
DESCASC
Precipitaciones de 06:00 a 12:00 en mm
DESCASC
Precipitaciones de 12:00 a 18:00 en mm
DESCASC
Precipitaciones de 18:00 a 24:00 en mm
DESCASC
25-04-2019 10.3 (16:40) 4.2 (05:20) 7.3 15.56 (16:00) 4.72 (15:00) 29.4 7.8 5.2 12.8 3.6
24-04-2019 12.5 (14:20) 3.9 (07:10) 8.2 14.44 (14:50) 6.11 (09:10) 25.4 6.8 2.4 14.4 1.8
23-04-2019 12.9 (19:00) 2.8 (12:10) 7.8 9.44 (16:30) 3.06 (14:30) 8.2 0.4 4 2.2 1.6
22-04-2019 20.4 (13:30) 7.3 (00:00) 13.8 8.33 (20:00) 3.61 (20:40) 0.8 0 0 0 0.8
21-04-2019 24 (17:00) 8.6 (00:00) 16.3 8.89 (17:10) 3.33 (14:20) 0 0 0 0 0
20-04-2019 25.9 (18:00) 8.5 (00:00) 17.2 9.17 (17:20) 2.78 (17:20) 0 0 0 0 0
19-04-2019 21.9 (18:20) 8.6 (00:00) 15.3 9.72 (17:20) 4.44 (16:30) 0.6 0 0.6 0 0
18-04-2019 18.4 (17:00) 7.9 (00:00) 13.1 7.22 (17:30) 4.44 (09:50) 0.6 0.6 0 0 0
17-04-2019 17.2 (14:10) 9.3 (00:00) 13.3 11.94 (14:10) 6.11 (13:40) 2.8 0 0 0.4 2.4
16-04-2019 22 (18:20) 6.2 (00:00) 14.1 8.89 (15:50) 5.28 (11:10) 0 0 0 0 0
15-04-2019 15.7 (01:40) 7.2 (00:00) 11.4 8.89 (17:50) 4.17 (01:50) 4.4 0 2.6 1.8 0
14-04-2019 20.6 (13:50) 12.7 (00:00) 16.7 7.22 (18:50) 3.61 (11:00) 0 0 0 0 0
13-04-2019 18.7 (13:10) 8.5 (00:00) 13.6 5.83 (18:10) 2.78 (05:30) 0 0 0 0 0
12-04-2019 18.1 (18:50) 3.3 (00:00) 10.7 7.5 (16:10) 4.44 (17:30) 0 0 0 0 0
11-04-2019 16.6 (19:40) 2.7 (00:00) 9.7 6.11 (15:30) 2.5 (05:50) 0 0 0 0 0
10-04-2019 14 (17:00) 5.7 (00:00) 9.8 7.22 (13:50) 3.89 (13:50) 1.4 1 0.2 0.2 0
09-04-2019 12.1 (18:10) 4.6 (00:00) 8.4 10.28 (17:40) 4.72 (17:40) 18.8 9.8 1.8 3.6 3.6
08-04-2019 14.6 (17:00) 6 (00:00) 10.3 10 (23:50) 4.17 (19:00) 9.6 1.6 1.2 0 6.8
07-04-2019 10.1 (23:30) 2.3 (00:00) 6.2 11.39 (18:10) 7.22 (17:20) 21.8 0 0.2 4.2 17.4
06-04-2019 11.2 (17:40) 3.3 (00:00) 7.2 11.11 (16:00) 4.44 (16:00) 27.2 9 4.2 4.8 9.2
05-04-2019 8.7 (18:50) 1.6 (00:00) 5.1 8.33 (09:30) 3.89 (07:20) 18.2 3.8 1 9.2 4.2
04-04-2019 9.3 (12:40) 2.3 (00:00) 5.8 9.44 (18:10) 3.33 (17:30) 13.6 0 0 0.8 12.8
03-04-2019 10.8 (17:00) 2.3 (22:10) 6.6 10.56 (15:40) 5 (15:30) 2.2 0.2 0.6 1 0.4
02-04-2019 15.3 (12:50) 5.9 (00:00) 10.6 5.83 (17:00) 3.06 (14:30) 0 0 0 0 0
01-04-2019 21.8 (16:20) 6.8 (00:00) 14.3 7.22 (02:00) 5 (02:00) 0 0 0 0 0
31-03-2019 21.4 (13:20) 5.4 (00:00) 13.4 9.44 (14:50) 4.72 (14:50) 0 0 0 0 0
30-03-2019 20.8 (14:30) 7 (00:00) 13.9 8.33 (15:00) 4.17 (15:20) 0 0 0 0 0
29-03-2019 21.8 (12:00) 7 (00:00) 14.4 8.89 (16:00) 4.72 (15:20) 0 0 0 0 0
28-03-2019 25.1 (16:30) 6.1 (00:00) 15.6 6.67 (04:10) 4.44 (04:50) 0 0 0 0 0
27-03-2019 24.5 (16:10) 3.9 (00:00) 14.2 8.61 (00:20) 5.28 (10:00) 0 0 0 0 0

Gráficas

Temp. máximas Temp. mínimas Temp. medias Precipitaciones Rachas de viento máximas Velocidades máximas media en intervalos de 10 minutos

Datos horarios

Fecha y hora oficial Temperatura (ºC) Velocidad del viento (km/h) Dirección del viento Racha (km/h) Dirección de racha Precipitación (mm) Presión (hPa) Tendencia (hPa) Humedad (%)
2019-04-25 23:00:00 7.7 11 Noroeste 31 Noroeste 0.4 -- -- 98
2019-04-25 22:00:00 7.9 10 Noroeste 25 Noroeste 0.8 -- -- 98
2019-04-25 21:00:00 8.2 10 Noroeste 29 Oeste 0.4 -- -- 97
2019-04-25 20:00:00 8.3 12 Noroeste 33 Oeste 1.8 -- -- 97
2019-04-25 19:00:00 8 11 Oeste 37 Noroeste 0.2 -- -- 92
2019-04-25 18:00:00 8.2 13 Noroeste 40 Noroeste 5 -- -- 95
2019-04-25 17:00:00 8 15 Noroeste 33 Norte 0.8 -- -- 89
2019-04-25 16:00:00 7.4 13 Noroeste 56 Noroeste 1.2 -- -- 94
2019-04-25 15:00:00 5.9 17 Oeste 44 Noroeste 2.4 -- -- 91
2019-04-25 14:00:00 9.3 5 Oeste 32 Noroeste 3.2 -- -- 93
2019-04-25 13:00:00 9.9 11 Sudoeste 30 Noroeste 0.2 -- -- 79
2019-04-25 12:00:00 10.2 6 Sudoeste 23 Sudeste 0.4 -- -- 82
2019-04-25 11:00:00 8.1 5 Sur 27 Noroeste 1 -- -- 94
2019-04-25 10:00:00 6.7 7 Sudoeste 23 Sudeste 0.8 -- -- 91
2019-04-25 09:00:00 6.8 6 Oeste 27 Oeste 1.2 -- -- 93
2019-04-25 08:00:00 5.3 4 Noroeste 31 Oeste 0.4 -- -- 96
2019-04-25 07:00:00 5 6 Noroeste 23 Oeste 1.4 -- -- 97
2019-04-25 06:00:00 5.1 7 Oeste 31 Noroeste 1.8 -- -- 98
2019-04-25 05:00:00 5.1 4 Sudoeste 26 Noroeste 1.2 -- -- 96
2019-04-25 04:00:00 4.6 4 Noroeste 37 Oeste 2 -- -- 97
2019-04-25 03:00:00 4.8 7 Oeste 41 Noroeste 1.8 -- -- 95
2019-04-25 02:00:00 5.8 5 Sudoeste 27 Oeste 0.8 -- -- 92
2019-04-25 01:00:00 6 4 Oeste 19 Norte 0.2 -- -- 92
2019-04-25 00:00:00 6.5 5 Noroeste 25 Oeste 0 -- -- 90
2019-04-24 23:00:00 6 8 Noroeste 23 Oeste 0 -- -- 89
2019-04-24 22:00:00 6.5 5 Oeste 21 Noroeste 0 -- -- 91
2019-04-24 21:00:00 7.2 7 Oeste 31 Oeste 0 -- -- 87
2019-04-24 20:00:00 7.9 14 Noroeste 30 Oeste 0.2 -- -- 91
2019-04-24 19:00:00 7.2 12 Oeste 33 Oeste 1.6 -- -- 95
2019-04-24 18:00:00 6.5 8 Oeste 51 Noroeste 7.4 -- -- 98
2019-04-24 17:00:00 8.5 8 Sudoeste 44 Noroeste 1.8 -- -- 91
2019-04-24 16:00:00 9 8 Sudoeste 35 Noroeste 1.2 -- -- 87
2019-04-24 15:00:00 11.7 12 Oeste 52 Oeste 0 -- -- 72
2019-04-24 14:00:00 11.6 8 Sudoeste 44 Oeste 0.8 -- -- 85
2019-04-24 13:00:00 8.2 13 Noroeste 44 Noroeste 3.2 -- -- 94
2019-04-24 12:00:00 11.2 9 Sudoeste 39 Oeste 0.2 -- -- 83
2019-04-24 11:00:00 9.2 10 Sudoeste 37 Oeste 1.2 -- -- 95
2019-04-24 10:00:00 5.5 16 Sudeste 39 Sudeste 0 -- -- 94
2019-04-24 09:00:00 4.4 21 Sudeste 33 Sudeste 0.2 -- -- 92
2019-04-24 08:00:00 4.1 22 Sudeste 37 Sur 0 -- -- 93
2019-04-24 07:00:00 4 18 Sudeste 33 Sudeste 0.8 -- -- 93
2019-04-24 06:00:00 4.3 13 Sudeste 24 Sudeste 0.4 -- -- 93
2019-04-24 05:00:00 4.6 8 Sudeste 15 Sur 0.6 -- -- 94
2019-04-24 04:00:00 4.5 8 Sur 24 Sur 0.6 -- -- 95
2019-04-24 03:00:00 4.5 10 Sudeste 26 Sudeste 0.6 -- -- 96
2019-04-24 02:00:00 4.2 4 Sur 27 Sur 1.4 -- -- 94
2019-04-24 01:00:00 4.7 8 Sur 16 Sudeste 3.2 -- -- 94
2019-04-24 00:00:00 5.2 3 Sur 17 Sur 0.6 -- -- 88
2019-04-23 23:00:00 4.8 6 Sur 21 Sur 0.4 -- -- 88
2019-04-23 22:00:00 5.5 4 Sur 17 Norte 0.6 -- -- 90
2019-04-23 21:00:00 7.2 3 Oeste 21 Oeste 0 -- -- 83
2019-04-23 20:00:00 9.2 6 Sur 19 Oeste 0 -- -- 73
2019-04-23 19:00:00 12.9 5 Oeste 22 Noroeste 0 -- -- 62
2019-04-23 18:00:00 12.3 7 Oeste 27 Oeste 0 -- -- 64
2019-04-23 17:00:00 7.3 3 Sur 34 Noroeste 0.6 -- -- 91
2019-04-23 16:00:00 9.9 5 Oeste 19 Oeste 0 -- -- 75
2019-04-23 15:00:00 9.8 10 Noroeste 30 Noroeste 0 -- -- 79
2019-04-23 14:00:00 7.9 3 Sudoeste 13 Sudoeste 0 -- -- 87
2019-04-23 13:00:00 4.4 0 Calma 12 Noroeste 1.6 -- -- 95
2019-04-23 12:00:00 3.1 4 Oeste 17 Oeste 2.2 -- -- 93
2019-04-23 11:00:00 6.6 3 Sudoeste 16 Noroeste 1 -- -- 89
2019-04-23 10:00:00 6.5 5 Sur 30 Sur 0 -- -- 87
2019-04-23 09:00:00 7 6 Sur 15 Sudeste 0.4 -- -- 82
2019-04-23 08:00:00 5.4 9 Sur 19 Sudeste 0.2 -- -- 90
2019-04-23 07:00:00 5.4 5 Sur 15 Sudeste 0.2 -- -- 90
2019-04-23 06:00:00 6.1 8 Sudeste 13 Sudeste 0 -- -- 87
2019-04-23 05:00:00 6.1 4 Sur 14 Sur 0 -- -- 90
2019-04-23 04:00:00 6.5 8 Sur 17 Sur 0 -- -- 86
2019-04-23 03:00:00 6.5 5 Sur 19 Sur 0 -- -- 88
2019-04-23 02:00:00 6.6 8 Sur 19 Sur 0.2 -- -- 86
2019-04-23 01:00:00 7.1 5 Sur 12 Sur 0.2 -- -- 90
2019-04-23 00:00:00 7.4 2 Sur 9 Oeste 0 -- -- 92
2019-04-22 23:00:00 7.5 3 Oeste 28 Oeste 0.2 -- -- 90
2019-04-22 22:00:00 8.6 9 Oeste 28 Sudeste 0.4 -- -- 88
2019-04-22 21:00:00 11.5 10 Sur 30 Sudeste 0 -- -- 77
2019-04-22 20:00:00 12.2 9 Sur 30 Sudeste 0 -- -- 74
2019-04-22 19:00:00 12.2 4 Sur 19 Oeste 0.2 -- -- 78
2019-04-22 18:00:00 14.5 4 Sudoeste 26 Sur 0 -- -- 68
2019-04-22 17:00:00 14.5 4 Sudoeste 17 Noroeste 0 -- -- 72
2019-04-22 16:00:00 16.2 6 Noroeste 22 Oeste 0 -- -- 67
2019-04-22 15:00:00 18.5 6 Sudoeste 20 Noroeste 0 -- -- 54
2019-04-22 14:00:00 18.7 9 Noroeste 20 Sudoeste 0 -- -- 52
2019-04-22 13:00:00 20.1 6 Oeste 18 Oeste 0 -- -- 52
2019-04-22 12:00:00 18 5 Noroeste 17 Sudoeste 0 -- -- 53
2019-04-22 11:00:00 18.3 4 Sudoeste 18 Sudoeste 0 -- -- 57
2019-04-22 10:00:00 16 5 Este 18 Sudeste 0 -- -- 59
2019-04-22 09:00:00 10.9 6 Este 15 Este 0 -- -- 73
2019-04-22 08:00:00 8.6 9 Este 19 Sudeste 0 -- -- 80
2019-04-22 07:00:00 8.1 12 Sudeste 19 Sudeste 0 -- -- 81
2019-04-22 06:00:00 8.4 8 Este 12 Este 0 -- -- 77
2019-04-22 05:00:00 8 6 Sudeste 16 Sudeste 0 -- -- 80
2019-04-22 04:00:00 8.1 6 Sudeste 15 Sudeste 0 -- -- 79
2019-04-22 03:00:00 10.7 5 Este 8 Sudeste 0 -- -- 68
2019-04-22 02:00:00 10.2 0 Calma 9 Nordeste 0 -- -- 73
2019-04-22 01:00:00 10.3 2 Noroeste 8 Nordeste 0 -- -- 73
2019-04-22 00:00:00 11.9 3 Norte 12 Nordeste 0 -- -- 69
2019-04-21 23:00:00 12.4 0 Calma 5 Nordeste 0 -- -- 81
2019-04-21 22:00:00 13.8 0 Calma 8 Norte 0 -- -- 73
2019-04-21 21:00:00 16.5 5 Noroeste 17 Nordeste 0 -- -- 63
2019-04-21 20:00:00 20.3 4 Nordeste 21 Nordeste 0 -- -- 43
2019-04-21 19:00:00 19.2 6 Nordeste 31 Este 0 -- -- 41
2019-04-21 18:00:00 22.7 10 Nordeste 32 Nordeste 0 -- -- 36
2019-04-21 17:00:00 24 9 Nordeste 28 Norte 0 -- -- 34
2019-04-21 16:00:00 22.8 11 Nordeste 26 Este 0 -- -- 37
2019-04-21 15:00:00 21.8 7 Nordeste 27 Este 0 -- -- 39
2019-04-21 14:00:00 21.5 6 Nordeste 29 Sudeste 0 -- -- 43
2019-04-21 13:00:00 21.7 8 Nordeste 21 Nordeste 0 -- -- 41
2019-04-21 12:00:00 20.2 6 Norte 15 Este 0 -- -- 46
2019-04-21 11:00:00 17.8 3 Noroeste 6 Oeste 0 -- -- 51
2019-04-21 10:00:00 14.9 0 Calma 6 Este 0 -- -- 56
2019-04-21 09:00:00 11 2 Sudeste 8 Sudeste 0 -- -- 63
2019-04-21 08:00:00 8.6 3 Sudeste 8 Sudeste 0 -- -- 68
2019-04-21 07:00:00 8.8 2 Sudeste 4 Sudeste 0 -- -- 67
2019-04-21 06:00:00 8.9 3 Sudeste 6 Sudeste 0 -- -- 68
2019-04-21 05:00:00 8.7 0 Calma 5 Sudeste 0 -- -- 72
2019-04-21 04:00:00 9.3 0 Calma 4 Este 0 -- -- 70
2019-04-21 03:00:00 10.9 0 Calma 19 Este 0 -- -- 62
2019-04-21 02:00:00 11.6 2 Nordeste 17 Este 0 -- -- 62
2019-04-21 01:00:00 13.3 9 Este 31 Este 0 -- -- 56
2019-04-21 00:00:00 12.9 4 Sudeste 17 Nordeste 0 -- -- 56
2019-04-20 23:00:00 13.9 5 Este 18 Nordeste 0 -- -- 54
2019-04-20 22:00:00 15.6 5 Norte 22 Este 0 -- -- 54
2019-04-20 21:00:00 18 6 Nordeste 26 Nordeste 0 -- -- 47
2019-04-20 20:00:00 22.5 7 Nordeste 22 Nordeste 0 -- -- 38
2019-04-20 19:00:00 24.2 9 Nordeste 29 Nordeste 0 -- -- 36
2019-04-20 18:00:00 25.9 5 Norte 33 Este 0 -- -- 37
2019-04-20 17:00:00 25.5 7 Nordeste 26 Norte 0 -- -- 39
2019-04-20 16:00:00 24.9 7 Nordeste 22 Este 0 -- -- 37
2019-04-20 15:00:00 23.6 9 Este 22 Nordeste 0 -- -- 45
2019-04-20 14:00:00 23 6 Nordeste 21 Nordeste 0 -- -- 44
2019-04-20 13:00:00 21.6 5 Nordeste 21 Este 0 -- -- 50
2019-04-20 12:00:00 19.9 7 Este 18 Este 0 -- -- 52
2019-04-20 11:00:00 18 5 Nordeste 21 Este 0 -- -- 55
2019-04-20 10:00:00 15.9 2 Oeste 5 Norte 0 -- -- 62
2019-04-20 09:00:00 10.5 0 Calma 3 Nordeste 0 -- -- 78
2019-04-20 08:00:00 8.5 0 Calma 5 Nordeste 0 -- -- 84
2019-04-20 07:00:00 9.6 2 Nordeste 4 Nordeste 0 -- -- 79
2019-04-20 06:00:00 9.7 3 Noroeste 5 Noroeste 0 -- -- 81
2019-04-20 05:00:00 10 0 Calma 7 Este 0 -- -- 84
2019-04-20 04:00:00 11.2 4 Este 12 Este 0 -- -- 77
2019-04-20 03:00:00 10.8 0 Calma 14 Sudeste 0 -- -- 86
2019-04-20 02:00:00 12.1 7 Este 17 Sudeste 0 -- -- 84
2019-04-20 01:00:00 11.9 5 Sudeste 15 Sudeste 0 -- -- 87
2019-04-20 00:00:00 12.1 4 Sudeste 23 Este 0 -- -- 87
2019-04-19 23:00:00 12.5 10 Este 26 Este 0 -- -- 85
2019-04-19 22:00:00 12.9 5 Este 10 Este 0 -- -- 83
2019-04-19 21:00:00 14.6 4 Este 26 Este 0 -- -- 75
2019-04-19 20:00:00 18.3 10 Este 25 Este 0 -- -- 63
2019-04-19 19:00:00 19.5 10 Nordeste 26 Este 0 -- -- 60
2019-04-19 18:00:00 20.7 8 Nordeste 35 Este 0 -- -- 52
2019-04-19 17:00:00 20.7 15 Sudeste 33 Sudeste 0 -- -- 44
2019-04-19 16:00:00 19.2 11 Sudeste 25 Sudeste 0 -- -- 49
2019-04-19 15:00:00 20.5 9 Este 28 Sudeste 0 -- -- 52
2019-04-19 14:00:00 17.6 8 Sudeste 28 Sudeste 0 -- -- 58
2019-04-19 13:00:00 17.1 6 Nordeste 30 Este 0 -- -- 67
2019-04-19 12:00:00 15.4 9 Este 21 Este 0 -- -- 72
2019-04-19 11:00:00 11.3 4 Este 17 Este 0 -- -- 95
2019-04-19 10:00:00 10.2 4 Noroeste 7 Norte 0 -- -- 98
2019-04-19 09:00:00 9.7 0 Calma 3 Oeste 0.4 -- -- 97
2019-04-19 08:00:00 9.5 0 Calma 3 Noroeste 0.2 -- -- 97
2019-04-19 07:00:00 9.4 2 Noroeste 8 Norte 0 -- -- 96
2019-04-19 06:00:00 9.3 3 Norte 12 Nordeste 0 -- -- 94
2019-04-19 05:00:00 9.1 2 Noroeste 9 Noroeste 0 -- -- 91
2019-04-19 04:00:00 9.5 0 Calma 8 Norte 0 -- -- 87
2019-04-19 03:00:00 8.7 0 Calma 3 Norte 0 -- -- 91
2019-04-19 02:00:00 9.2 0 Calma 12 Nordeste 0 -- -- 88
2019-04-19 01:00:00 9.5 0 Calma 6 Nordeste 0 -- -- 86
2019-04-19 00:00:00 10.2 2 Nordeste 5 Este 0 -- -- 82
2019-04-18 23:00:00 11 0 Calma 13 Este 0 -- -- 77
2019-04-18 22:00:00 12.1 3 Nordeste 17 Nordeste 0 -- -- 74
2019-04-18 21:00:00 13.2 4 Nordeste 14 Este 0 -- -- 74
2019-04-18 20:00:00 13.9 5 Noroeste 16 Noroeste 0 -- -- 77
2019-04-18 19:00:00 15.1 5 Norte 18 Noroeste 0 -- -- 70
2019-04-18 18:00:00 16.2 5 Norte 26 Noroeste 0 -- -- 62
2019-04-18 17:00:00 18.4 9 Noroeste 23 Noroeste 0 -- -- 57
2019-04-18 16:00:00 16.3 8 Noroeste 19 Noroeste 0 -- -- 62
2019-04-18 15:00:00 15.8 8 Noroeste 15 Noroeste 0 -- -- 64
2019-04-18 14:00:00 15.8 3 Oeste 12 Sur 0 -- -- 60
2019-04-18 13:00:00 16.4 7 Sudeste 21 Sudeste 0 -- -- 58
2019-04-18 12:00:00 15.8 10 Sur 23 Sudeste 0 -- -- 65
2019-04-18 11:00:00 13.6 13 Sur 23 Sudeste 0 -- -- 73
2019-04-18 10:00:00 12.2 10 Sur 23 Sudeste 0 -- -- 81
2019-04-18 09:00:00 9.9 11 Sur 18 Sur 0 -- -- 88
2019-04-18 08:00:00 8.2 7 Sudeste 15 Sudeste 0 -- -- 96
2019-04-18 07:00:00 8.2 6 Sudeste 14 Sur 0 -- -- 97
2019-04-18 06:00:00 8.8 7 Sudeste 13 Este 0.2 -- -- 96
2019-04-18 05:00:00 9.4 6 Sudeste 16 Sudeste 0.2 -- -- 94
2019-04-18 04:00:00 9.4 12 Sudeste 19 Sudeste 0 -- -- 94
2019-04-18 03:00:00 9.4 6 Sudeste 17 Sudeste 0 -- -- 94
2019-04-18 02:00:00 9.5 9 Sudeste 15 Sudeste 0.2 -- -- 95
2019-04-18 01:00:00 9.7 7 Sudeste 17 Sudeste 0 -- -- 95
2019-04-18 00:00:00 9.7 9 Sudeste 17 Sudeste 0.6 -- -- 94
2019-04-17 23:00:00 9.9 9 Sudeste 14 Sudeste 0 -- -- 94
2019-04-17 22:00:00 10.2 9 Sudeste 15 Sudeste 0 -- -- 93
2019-04-17 21:00:00 10.4 4 Sudeste 11 Sudeste 0 -- -- 92
2019-04-17 20:00:00 10.9 0 Calma 10 Noroeste 0.8 -- -- 91
2019-04-17 19:00:00 11.4 0 Calma 8 Sudeste 1 -- -- 89
2019-04-17 18:00:00 12.4 0 Calma 21 Sur 0.4 -- -- 84
2019-04-17 17:00:00 13.6 4 Sudoeste 23 Sudeste 0 -- -- 79
2019-04-17 16:00:00 14.9 15 Sur 36 Sur 0 -- -- 68
2019-04-17 15:00:00 16.2 19 Sur 43 Sur 0 -- -- 60
2019-04-17 14:00:00 16.5 19 Sudeste 42 Sudeste 0 -- -- 58
2019-04-17 13:00:00 15.2 21 Sur 35 Sudeste 0 -- -- 58
2019-04-17 12:00:00 14.3 13 Sur 30 Sur 0 -- -- 58
2019-04-17 11:00:00 12.9 5 Sudeste 12 Sudeste 0 -- -- 70
2019-04-17 10:00:00 11.2 6 Sudeste 11 Sudeste 0 -- -- 74
2019-04-17 09:00:00 10.3 4 Sudeste 12 Sudeste 0 -- -- 79
2019-04-17 08:00:00 9.7 2 Sudoeste 8 Este 0 -- -- 82
2019-04-17 07:00:00 10.6 0 Calma 4 Sudoeste 0 -- -- 74
2019-04-17 06:00:00 10.4 0 Calma 4 Noroeste 0 -- -- 76
2019-04-17 05:00:00 10.3 2 Noroeste 17 Sudeste 0 -- -- 75
2019-04-17 04:00:00 10.2 13 Sudeste 17 Sudeste 0 -- -- 78
2019-04-17 03:00:00 9.7 11 Sudeste 16 Sudeste 0 -- -- 83
2019-04-17 02:00:00 9.8 8 Sudeste 13 Sudeste 0 -- -- 85
2019-04-17 01:00:00 9.4 6 Sudeste 10 Sudeste 0 -- -- 85
2019-04-17 00:00:00 9.7 5 Este 6 Nordeste 0 -- -- 82
2019-04-16 23:00:00 10.5 0 Calma 3 Nordeste 0 -- -- 81
2019-04-16 22:00:00 11.5 0 Calma 5 Noroeste 0 -- -- 80
2019-04-16 21:00:00 13.2 3 Noroeste 10 Noroeste 0 -- -- 74
2019-04-16 20:00:00 15 7 Noroeste 15 Norte 0 -- -- 67
2019-04-16 19:00:00 18.9 7 Noroeste 17 Norte 0 -- -- 51
2019-04-16 18:00:00 19.7 0 Calma 15 Noroeste 0 -- -- 47
2019-04-16 17:00:00 19.6 6 Noroeste 22 Sudeste 0 -- -- 48
2019-04-16 16:00:00 18.3 9 Sur 32 Sudoeste 0 -- -- 46
2019-04-16 15:00:00 17.7 16 Sur 30 Sur 0 -- -- 44
2019-04-16 14:00:00 17.2 10 Sur 23 Sudeste 0 -- -- 47
2019-04-16 13:00:00 15.2 13 Sur 25 Sur 0 -- -- 56
2019-04-16 12:00:00 12.9 15 Sur 27 Sudeste 0 -- -- 65
2019-04-16 11:00:00 11.9 18 Sudeste 26 Sudeste 0 -- -- 66
2019-04-16 10:00:00 10 15 Sudeste 26 Sudeste 0 -- -- 78
2019-04-16 09:00:00 7 10 Sudeste 22 Sudeste 0 -- -- 85
2019-04-16 08:00:00 6.4 10 Sudeste 22 Sudeste 0 -- -- 88
2019-04-16 07:00:00 6.6 17 Sudeste 25 Sudeste 0 -- -- 90
2019-04-16 06:00:00 6.3 14 Sudeste 22 Sudeste 0 -- -- 90
2019-04-16 05:00:00 7.4 11 Sudeste 21 Sudeste 0 -- -- 86
2019-04-16 04:00:00 7.3 8 Sudeste 19 Sudeste 0 -- -- 88
2019-04-16 03:00:00 8 9 Sudeste 15 Sur 0 -- -- 85
2019-04-16 02:00:00 7.1 5 Sur 12 Sur 0 -- -- 86
2019-04-16 01:00:00 7 6 Sudeste 14 Sur 0 -- -- 87
2019-04-16 00:00:00 7.2 4 Sur 15 Sur 0 -- -- 89
2019-04-15 23:00:00 7.4 3 Sur 7 Sur 0 -- -- 90
2019-04-15 22:00:00 8.2 0 Calma 14 Oeste 0 -- -- 90
2019-04-15 21:00:00 9.2 0 Calma 18 Oeste 0 -- -- 86
2019-04-15 20:00:00 12.6 5 Oeste 23 Noroeste 0 -- -- 71
2019-04-15 19:00:00 13.5 8 Noroeste 23 Noroeste 0 -- -- 72
2019-04-15 18:00:00 14.9 10 Noroeste 32 Noroeste 0 -- -- 69
2019-04-15 17:00:00 13.5 8 Oeste 24 Noroeste 0 -- -- 75
2019-04-15 16:00:00 12.9 11 Noroeste 28 Noroeste 0 -- -- 79
2019-04-15 15:00:00 11.5 4 Noroeste 22 Oeste 0.8 -- -- 91
2019-04-15 14:00:00 12.7 8 Noroeste 28 Noroeste 0.4 -- -- 87
2019-04-15 13:00:00 11.9 4 Sudoeste 17 Oeste 0.6 -- -- 91
2019-04-15 12:00:00 11 5 Noroeste 26 Oeste 0.8 -- -- 93
2019-04-15 11:00:00 10.1 8 Oeste 30 Noroeste 0.6 -- -- 94
2019-04-15 10:00:00 12.4 6 Sudoeste 23 Sur 0.4 -- -- 90
2019-04-15 09:00:00 12.9 4 Sudeste 18 Sur 0 -- -- 87
2019-04-15 08:00:00 12.6 5 Sudoeste 28 Sudoeste 0.4 -- -- 93
2019-04-15 07:00:00 13.5 9 Sur 27 Sudoeste 0.4 -- -- 92
2019-04-15 06:00:00 14.6 5 Sur 24 Sudeste 0 -- -- 89
2019-04-15 05:00:00 14.7 6 Sudeste 18 Sudeste 0 -- -- 88
2019-04-15 04:00:00 14.4 7 Sudeste 19 Sudeste 0 -- -- 91
2019-04-15 03:00:00 14.9 11 Sudeste 20 Sur 0 -- -- 87
2019-04-15 02:00:00 15.5 13 Sur 29 Sur 0 -- -- 83
2019-04-15 01:00:00 15.2 10 Sudeste 18 Sudeste 0 -- -- 84
2019-04-15 00:00:00 15.3 6 Sur 14 Sur 0 -- -- 81
2019-04-14 23:00:00 15.5 6 Sur 15 Sur 0 -- -- 79
2019-04-14 22:00:00 15 8 Sur 22 Sur 0 -- -- 83
2019-04-14 21:00:00 15.9 6 Sur 19 Sur 0 -- -- 81
2019-04-14 20:00:00 16 6 Sur 23 Sudoeste 0 -- -- 83
2019-04-14 19:00:00 17.3 5 Sur 26 Sur 0 -- -- 77
2019-04-14 18:00:00 18.3 7 Sur 18 Sur 0 -- -- 73
2019-04-14 17:00:00 18.5 6 Sudoeste 17 Sur 0 -- -- 73
2019-04-14 16:00:00 19.3 6 Sur 16 Sur 0 -- -- 69
2019-04-14 15:00:00 20.1 3 Sudoeste 13 Oeste 0 -- -- 67
2019-04-14 14:00:00 20.3 4 Oeste 12 Sur 0 -- -- 67
2019-04-14 13:00:00 19.3 3 Sur 15 Sudeste 0 -- -- 74
2019-04-14 12:00:00 17.6 9 Sudeste 21 Sudeste 0 -- -- 79
2019-04-14 11:00:00 15.1 13 Sudeste 18 Sudeste 0 -- -- 87
2019-04-14 10:00:00 14 9 Sudeste 15 Sudeste 0 -- -- 90
2019-04-14 09:00:00 13.5 8 Sudeste 13 Sudeste 0 -- -- 91
2019-04-14 08:00:00 13.4 8 Sur 13 Sudeste 0 -- -- 93
2019-04-14 07:00:00 13.4 0 Calma 8 Sudeste 0 -- -- 93
2019-04-14 06:00:00 13.6 0 Calma 11 Sur 0 -- -- 93
2019-04-14 05:00:00 13.6 4 Sur 14 Sur 0 -- -- 90
2019-04-14 04:00:00 13.6 3 Sur 9 Sudeste 0 -- -- 90
2019-04-14 03:00:00 13.7 5 Sudeste 15 Sur 0 -- -- 89
2019-04-14 02:00:00 12.9 2 Sur 11 Noroeste 0 -- -- 94
2019-04-14 01:00:00 12.8 3 Sudoeste 12 Oeste 0 -- -- 94
2019-04-14 00:00:00 12.7 2 Noroeste 13 Este 0 -- -- 92
2019-04-13 23:00:00 12.7 4 Sur 16 Sur 0 -- -- 91
2019-04-13 22:00:00 12.9 6 Sur 13 Sur 0 -- -- 91
2019-04-13 21:00:00 13.2 3 Sur 16 Sur 0 -- -- 89
2019-04-13 20:00:00 14.5 4 Sur 15 Noroeste 0 -- -- 84
2019-04-13 19:00:00 14.2 4 Sudoeste 21 Oeste 0 -- -- 85
2019-04-13 18:00:00 15 6 Oeste 19 Noroeste 0 -- -- 79
2019-04-13 17:00:00 15.3 4 Sudoeste 18 Oeste 0 -- -- 77
2019-04-13 16:00:00 16.2 4 Sudoeste 12 Noroeste 0 -- -- 65
2019-04-13 15:00:00 17.2 4 Oeste 13 Oeste 0 -- -- 58
2019-04-13 14:00:00 17.2 4 Oeste 13 Noroeste 0 -- -- 47
2019-04-13 13:00:00 18.4 4 Sur 15 Noroeste 0 -- -- 43
2019-04-13 12:00:00 17.3 3 Oeste 10 Sudeste 0 -- -- 51
2019-04-13 11:00:00 14.2 5 Sudeste 13 Sudeste 0 -- -- 64
2019-04-13 10:00:00 11.4 8 Sudeste 17 Sudeste 0 -- -- 75
2019-04-13 09:00:00 10.5 9 Sudeste 14 Sudeste 0 -- -- 75
2019-04-13 08:00:00 8.7 2 Sur 13 Sudeste 0 -- -- 84
2019-04-13 07:00:00 8.8 9 Este 15 Sudeste 0 -- -- 82
2019-04-13 06:00:00 9 9 Sudeste 16 Este 0 -- -- 82
2019-04-13 05:00:00 8.9 5 Sudeste 10 Sudeste 0 -- -- 82
2019-04-13 04:00:00 9 2 Sudeste 15 Sudeste 0 -- -- 81
2019-04-13 03:00:00 9.5 4 Sudeste 13 Sudeste 0 -- -- 79
2019-04-13 02:00:00 8.9 5 Sudeste 13 Este 0 -- -- 82
2019-04-13 01:00:00 9.1 4 Sudeste 9 Sudeste 0 -- -- 81
2019-04-13 00:00:00 10.1 0 Calma 2 Nordeste 0 -- -- 78
2019-04-12 23:00:00 10.2 0 Calma 4 Sudeste 0 -- -- 77
2019-04-12 22:00:00 11.1 2 Noroeste 8 Noroeste 0 -- -- 70
2019-04-12 21:00:00 12.6 3 Noroeste 11 Noroeste 0 -- -- 63
2019-04-12 20:00:00 15.8 5 Noroeste 14 Noroeste 0 -- -- 57
2019-04-12 19:00:00 17.1 10 Noroeste 21 Noroeste 0 -- -- 49
2019-04-12 18:00:00 17.6 12 Noroeste 27 Noroeste 0 -- -- 53
2019-04-12 17:00:00 18 12 Noroeste 27 Noroeste 0 -- -- 51
2019-04-12 16:00:00 17.8 12 Noroeste 22 Noroeste 0 -- -- 53
2019-04-12 15:00:00 16.9 9 Norte 18 Noroeste 0 -- -- 56
2019-04-12 14:00:00 16.4 9 Noroeste 17 Noroeste 0 -- -- 59
2019-04-12 13:00:00 15.9 8 Noroeste 15 Noroeste 0 -- -- 58
2019-04-12 12:00:00 17.3 3 Sudeste 13 Sudeste 0 -- -- 53
2019-04-12 11:00:00 13.3 8 Sudeste 14 Este 0 -- -- 66
2019-04-12 10:00:00 9.2 10 Sudeste 17 Sudeste 0 -- -- 77
2019-04-12 09:00:00 5.4 8 Sudeste 14 Sudeste 0 -- -- 87
2019-04-12 08:00:00 3.4 4 Sudeste 15 Este 0 -- -- 91
2019-04-12 07:00:00 3.3 2 Sur 16 Sudeste 0 -- -- 93
2019-04-12 06:00:00 4.7 10 Sudeste 19 Sudeste 0 -- -- 90
2019-04-12 05:00:00 4.6 10 Sudeste 14 Sudeste 0 -- -- 92
2019-04-12 04:00:00 5.6 7 Sudeste 14 Sudeste 0 -- -- 90
2019-04-12 03:00:00 5.6 3 Sudeste 12 Sudeste 0 -- -- 92
2019-04-12 02:00:00 6.6 4 Sudeste 9 Sudeste 0 -- -- 89
2019-04-12 01:00:00 7.6 6 Sudeste 9 Este 0 -- -- 85
2019-04-12 00:00:00 7.4 0 Calma 4 Nordeste 0 -- -- 91
2019-04-11 23:00:00 8.3 0 Calma 5 Este 0 -- -- 88
2019-04-11 22:00:00 9.1 0 Calma 6 Nordeste 0 -- -- 84
2019-04-11 21:00:00 11.7 2 Norte 9 Nordeste 0 -- -- 72
2019-04-11 20:00:00 14.5 3 Norte 13 Norte 0 -- -- 58
2019-04-11 19:00:00 15.1 4 Norte 12 Nordeste 0 -- -- 55
2019-04-11 18:00:00 16.3 4 Este 14 Noroeste 0 -- -- 43
2019-04-11 17:00:00 15.9 6 Noroeste 17 Noroeste 0 -- -- 55
2019-04-11 16:00:00 15.5 4 Norte 22 Noroeste 0 -- -- 48
2019-04-11 15:00:00 15.6 9 Norte 18 Noroeste 0 -- -- 49
2019-04-11 14:00:00 14.7 6 Noroeste 17 Noroeste 0 -- -- 55
2019-04-11 13:00:00 13.2 7 Noroeste 15 Noroeste 0 -- -- 68
2019-04-11 12:00:00 11.7 8 Noroeste 12 Noroeste 0 -- -- 80
2019-04-11 11:00:00 12.3 4 Sur 9 Sudeste 0 -- -- 69
2019-04-11 10:00:00 9.1 0 Calma 6 Nordeste 0 -- -- 80
2019-04-11 09:00:00 3.7 3 Este 8 Este 0 -- -- 98
2019-04-11 08:00:00 3.7 7 Sudeste 12 Sudeste 0 -- -- 98
2019-04-11 07:00:00 3.9 5 Sudeste 13 Sudeste 0 -- -- 99
2019-04-11 06:00:00 3.8 9 Sudeste 13 Sudeste 0 -- -- 99
2019-04-11 05:00:00 3.5 5 Este 10 Este 0 -- -- 97
2019-04-11 04:00:00 4.8 4 Este 6 Este 0 -- -- 97
2019-04-11 03:00:00 5.8 0 Calma 2 Este 0 -- -- 97
2019-04-11 02:00:00 6.2 0 Calma 3 Nordeste 0 -- -- 96
2019-04-11 01:00:00 6.5 0 Calma 3 Este 0 -- -- 96
2019-04-11 00:00:00 6.1 0 Calma 4 Este 0 -- -- 94
2019-04-10 23:00:00 6.8 0 Calma 4 Sudeste 0 -- -- 92
2019-04-10 22:00:00 7.6 0 Calma 4 Noroeste 0 -- -- 91
2019-04-10 21:00:00 9.1 2 Noroeste 10 Noroeste 0 -- -- 82
2019-04-10 20:00:00 11.4 8 Noroeste 15 Noroeste 0 -- -- 71
2019-04-10 19:00:00 11.7 2 Noroeste 14 Noroeste 0 -- -- 72
2019-04-10 18:00:00 12.7 6 Norte 22 Noroeste 0 -- -- 69
2019-04-10 17:00:00 14 8 Noroeste 20 Noroeste 0 -- -- 69
2019-04-10 16:00:00 12.1 9 Noroeste 22 Noroeste 0 -- -- 77
2019-04-10 15:00:00 10.3 7 Noroeste 23 Noroeste 0.2 -- -- 88
2019-04-10 14:00:00 11.2 12 Noroeste 26 Noroeste 0 -- -- 88
2019-04-10 13:00:00 10.1 9 Noroeste 19 Noroeste 0 -- -- 93
2019-04-10 12:00:00 9.7 8 Noroeste 17 Noroeste 0 -- -- 93
2019-04-10 11:00:00 8.3 7 Noroeste 21 Noroeste 0.2 -- -- 96
2019-04-10 10:00:00 7.8 6 Noroeste 21 Noroeste 0 -- -- 97
2019-04-10 09:00:00 7.1 4 Noroeste 18 Oeste 0 -- -- 99
2019-04-10 08:00:00 6.5 5 Noroeste 11 Noroeste 0 -- -- 99
2019-04-10 07:00:00 5.7 4 Noroeste 15 Oeste 0 -- -- 99
2019-04-10 06:00:00 6.2 6 Noroeste 15 Noroeste 0.2 -- -- 98
2019-04-10 05:00:00 6.9 7 Noroeste 19 Noroeste 0 -- -- 99
2019-04-10 04:00:00 6.7 7 Noroeste 21 Oeste 0 -- -- 98
2019-04-10 03:00:00 6.7 6 Noroeste 18 Noroeste 0.8 -- -- 99
2019-04-10 02:00:00 6.8 6 Noroeste 16 Noroeste 0 -- -- 99
2019-04-10 01:00:00 6.5 5 Noroeste 14 Noroeste 0 -- -- 98
2019-04-10 00:00:00 6.8 5 Noroeste 23 Noroeste 0 -- -- 98
2019-04-09 23:00:00 7.3 8 Noroeste 27 Noroeste 0.2 -- -- 98
2019-04-09 22:00:00 7.3 9 Noroeste 24 Oeste 1 -- -- 98
2019-04-09 21:00:00 7.4 10 Noroeste 27 Noroeste 0.2 -- -- 97
2019-04-09 20:00:00 7.7 13 Noroeste 37 Noroeste 1.6 -- -- 96
2019-04-09 19:00:00 9.6 13 Noroeste 36 Oeste 0.6 -- -- 88
2019-04-09 18:00:00 11.4 13 Noroeste 37 Noroeste 0.2 -- -- 82
2019-04-09 17:00:00 8.5 13 Noroeste 32 Norte 0.8 -- -- 95
2019-04-09 16:00:00 8.1 9 Noroeste 26 Oeste 1.4 -- -- 92
2019-04-09 15:00:00 11.4 8 Noroeste 28 Noroeste 0 -- -- 81
2019-04-09 14:00:00 10.3 10 Oeste 33 Noroeste 1.2 -- -- 83
2019-04-09 13:00:00 11 8 Oeste 30 Oeste 0 -- -- 75
2019-04-09 12:00:00 9.5 7 Oeste 29 Norte 0 -- -- 81
2019-04-09 11:00:00 8.4 5 Noroeste 13 Oeste 0 -- -- 91
2019-04-09 10:00:00 6.7 4 Oeste 21 Noroeste 1.4 -- -- 96
2019-04-09 09:00:00 5.7 4 Sur 13 Sudoeste 0 -- -- 97
2019-04-09 08:00:00 5 2 Noroeste 8 Noroeste 0 -- -- 98
2019-04-09 07:00:00 5.9 5 Noroeste 26 Oeste 0.4 -- -- 97
2019-04-09 06:00:00 5.9 3 Noroeste 16 Noroeste 3 -- -- 97
2019-04-09 05:00:00 7.2 5 Sur 19 Sudoeste 0.2 -- -- 94
2019-04-09 04:00:00 6.5 8 Sur 18 Sur 2.8 -- -- 95
2019-04-09 03:00:00 6.9 9 Sur 25 Sur 1 -- -- 91
2019-04-09 02:00:00 7 7 Sur 28 Sur 1.6 -- -- 91
2019-04-09 01:00:00 7.4 6 Sur 27 Sur 1.2 -- -- 93
2019-04-09 00:00:00 7.3 7 Sur 36 Sur 0.6 -- -- 93
2019-04-08 23:00:00 6.7 6 Sur 25 Sur 4.8 -- -- 95
2019-04-08 22:00:00 7.9 13 Sur 31 Sur 0.8 -- -- 84
2019-04-08 21:00:00 8.8 12 Sur 30 Sur 0 -- -- 81
2019-04-08 20:00:00 9.6 6 Sur 33 Sur 0 -- -- 79
2019-04-08 19:00:00 9.1 15 Sur 36 Sur 0.6 -- -- 83
2019-04-08 18:00:00 10.8 8 Sudoeste 30 Oeste 0 -- -- 68
2019-04-08 17:00:00 14.6 8 Sudoeste 34 Noroeste 0 -- -- 58
2019-04-08 16:00:00 13.5 12 Oeste 33 Oeste 0 -- -- 59
2019-04-08 15:00:00 12.8 9 Oeste 23 Noroeste 0 -- -- 67
2019-04-08 14:00:00 12.1 6 Oeste 26 Sudoeste 0 -- -- 66
2019-04-08 13:00:00 13.4 9 Sudoeste 24 Sur 0 -- -- 65
2019-04-08 12:00:00 11.1 5 Sudoeste 24 Oeste 0 -- -- 73
2019-04-08 11:00:00 11.1 4 Sudoeste 15 Sur 0 -- -- 77
2019-04-08 10:00:00 9.3 6 Sur 16 Sur 0 -- -- 83
2019-04-08 09:00:00 6.4 5 Sur 14 Sur 0.6 -- -- 94
2019-04-08 08:00:00 6.5 4 Sur 13 Sur 0.6 -- -- 93
2019-04-08 07:00:00 6.9 3 Sudeste 10 Sur 0 -- -- 93
2019-04-08 06:00:00 7 4 Sur 15 Sur 0 -- -- 94
2019-04-08 05:00:00 7.2 0 Calma 15 Noroeste 0.4 -- -- 97
2019-04-08 04:00:00 7.7 3 Noroeste 17 Oeste 0 -- -- 98
2019-04-08 03:00:00 8.3 7 Noroeste 22 Noroeste 0.4 -- -- 98
2019-04-08 02:00:00 8.5 6 Noroeste 17 Noroeste 0.6 -- -- 98
2019-04-08 01:00:00 8.5 3 Noroeste 23 Noroeste 0.2 -- -- 98
2019-04-08 00:00:00 9.6 10 Noroeste 24 Noroeste 1.4 -- -- 98
2019-04-07 23:00:00 9.2 6 Sur 19 Sur 7 -- -- 99
2019-04-07 22:00:00 9 9 Sudeste 15 Sudeste 2.4 -- -- 98
2019-04-07 21:00:00 9.4 5 Sudeste 11 Sudeste 2.2 -- -- 96
2019-04-07 20:00:00 8.5 5 Este 12 Este 1.8 -- -- 97
2019-04-07 19:00:00 7.8 5 Este 41 Sudeste 2.6 -- -- 95
2019-04-07 18:00:00 7.4 23 Sudeste 40 Sur 2.4 -- -- 94
2019-04-07 17:00:00 7.4 21 Sur 36 Sudeste 0.6 -- -- 91
2019-04-07 16:00:00 7.7 20 Sudeste 35 Sudeste 0.2 -- -- 87
2019-04-07 15:00:00 7.4 13 Sur 25 Sudeste 1 -- -- 89
2019-04-07 14:00:00 9.5 8 Sur 21 Sur 0 -- -- 75
2019-04-07 13:00:00 9.2 14 Sudeste 24 Sudeste 0 -- -- 81
2019-04-07 12:00:00 8.3 13 Sudeste 22 Sudeste 0 -- -- 85
2019-04-07 11:00:00 7.8 10 Sudeste 17 Sudeste 0 -- -- 87
2019-04-07 10:00:00 5.1 9 Sudeste 15 Sudeste 0 -- -- 94
2019-04-07 09:00:00 3.1 10 Este 14 Este 0.2 -- -- 96
2019-04-07 08:00:00 2.9 8 Este 10 Sudeste 0 -- -- 95
2019-04-07 07:00:00 2.3 4 Este 9 Este 0 -- -- 96
2019-04-07 06:00:00 2.4 0 Calma 8 Nordeste 0 -- -- 96
2019-04-07 05:00:00 3.2 0 Calma 8 Oeste 0 -- -- 97
2019-04-07 04:00:00 3.5 3 Norte 10 Oeste 0 -- -- 97
2019-04-07 03:00:00 3.5 0 Calma 3 Sudeste 0 -- -- 98
2019-04-07 02:00:00 3.9 0 Calma 5 Noroeste 0 -- -- 98
2019-04-07 01:00:00 4.1 0 Calma 2 Oeste 0 -- -- 98
2019-04-07 00:00:00 4.1 2 Noroeste 10 Oeste 0.2 -- -- 97
2019-04-06 23:00:00 4.3 0 Calma 5 Noroeste 0 -- -- 97
2019-04-06 22:00:00 4.3 0 Calma 4 Noroeste 0 -- -- 97
2019-04-06 21:00:00 4.9 3 Noroeste 17 Oeste 0.8 -- -- 97
2019-04-06 20:00:00 5.4 4 Noroeste 28 Noroeste 2.6 -- -- 97
2019-04-06 19:00:00 4.7 0 Calma 27 Noroeste 5.6 -- -- 96
2019-04-06 18:00:00 8 10 Noroeste 35 Noroeste 0.4 -- -- 83
2019-04-06 17:00:00 8.2 11 Noroeste 34 Norte 0 -- -- 80
2019-04-06 16:00:00 10 16 Noroeste 40 Noroeste 1 -- -- 84
2019-04-06 15:00:00 5.1 13 Noroeste 29 Noroeste 2 -- -- 97
2019-04-06 14:00:00 5.7 12 Noroeste 31 Noroeste 1.2 -- -- 96
2019-04-06 13:00:00 7 13 Noroeste 35 Noroeste 0.2 -- -- 93
2019-04-06 12:00:00 4.9 9 Noroeste 30 Oeste 1.4 -- -- 96
2019-04-06 11:00:00 5.8 13 Noroeste 31 Noroeste 0.2 -- -- 93
2019-04-06 10:00:00 5.6 10 Noroeste 26 Oeste 0.6 -- -- 95
2019-04-06 09:00:00 5 9 Noroeste 20 Noroeste 0.6 -- -- 96
2019-04-06 08:00:00 4.5 2 Oeste 18 Noroeste 0.6 -- -- 96
2019-04-06 07:00:00 4.2 7 Sudoeste 22 Sur 0.8 -- -- 96
2019-04-06 06:00:00 3.6 7 Sur 27 Oeste 1 -- -- 96
2019-04-06 05:00:00 4 9 Noroeste 32 Oeste 1.8 -- -- 96
2019-04-06 04:00:00 3.7 5 Oeste 28 Sudoeste 1.6 -- -- 96
2019-04-06 03:00:00 3.5 6 Sur 19 Sur 2.6 -- -- 96
2019-04-06 02:00:00 3.8 4 Sudoeste 15 Sur 1.6 -- -- 96
2019-04-06 01:00:00 4.5 8 Sur 21 Sudeste 0.4 -- -- 96
2019-04-06 00:00:00 3.3 3 Sur 22 Oeste 3.2 -- -- 97
2019-04-05 23:00:00 5.2 3 Sur 9 Sudeste 0 -- -- 93
2019-04-05 22:00:00 5 4 Noroeste 13 Oeste 0 -- -- 93
2019-04-05 21:00:00 5.2 2 Oeste 10 Noroeste 0 -- -- 93
2019-04-05 20:00:00 7.6 3 Oeste 11 Oeste 0.4 -- -- 83
2019-04-05 19:00:00 7.9 2 Sudoeste 9 Noroeste 0.6 -- -- 81
2019-04-05 18:00:00 5.2 4 Noroeste 13 Noroeste 2.8 -- -- 94
2019-04-05 17:00:00 7.2 6 Sudeste 12 Sur 2.2 -- -- 87
2019-04-05 16:00:00 4.7 0 Calma 13 Oeste 1.6 -- -- 91
2019-04-05 15:00:00 7.9 6 Sudoeste 18 Sur 0.8 -- -- 86
2019-04-05 14:00:00 5.1 4 Oeste 17 Oeste 0.8 -- -- 92
2019-04-05 13:00:00 6.1 5 Sudoeste 25 Sur 1 -- -- 87
2019-04-05 12:00:00 7.7 7 Sudoeste 24 Sur 0 -- -- 77
2019-04-05 11:00:00 4.2 10 Sur 19 Sur 0.8 -- -- 88
2019-04-05 10:00:00 4.5 9 Sur 30 Sur 0 -- -- 87
2019-04-05 09:00:00 2.9 6 Sur 15 Sudeste 0 -- -- 91
2019-04-05 08:00:00 1.7 14 Sudeste 23 Sudeste 0 -- -- 94
2019-04-05 07:00:00 1.8 13 Sudeste 22 Sudeste 0.2 -- -- 95
2019-04-05 06:00:00 2 6 Sudeste 16 Sudeste 0.4 -- -- 96
2019-04-05 05:00:00 2 8 Sudeste 12 Sudeste 1.2 -- -- 95
2019-04-05 04:00:00 2.9 5 Oeste 15 Oeste 0.8 -- -- 93
2019-04-05 03:00:00 3.3 5 Sur 10 Oeste 0 -- -- 97
2019-04-05 02:00:00 3.4 7 Noroeste 23 Noroeste 0.8 -- -- 96
2019-04-05 01:00:00 4.2 3 Oeste 8 Oeste 0.6 -- -- 97
2019-04-05 00:00:00 3.9 2 Sudeste 8 Oeste 0.8 -- -- 96
2019-04-04 23:00:00 4 0 Calma 18 Sur 1 -- -- 96
2019-04-04 22:00:00 3.7 9 Sudeste 15 Sudeste 0.8 -- -- 96
2019-04-04 21:00:00 4.2 4 Sur 8 Sur 3.8 -- -- 97
2019-04-04 20:00:00 4.4 2 Sur 31 Noroeste 5 -- -- 96
2019-04-04 19:00:00 6.4 8 Sur 34 Sur 1.4 -- -- 89
2019-04-04 18:00:00 7.4 9 Sur 30 Sur 0.4 -- -- 86
2019-04-04 17:00:00 7.4 8 Sur 27 Sur 0.2 -- -- 86
2019-04-04 16:00:00 7.8 8 Sur 28 Noroeste 0.2 -- -- 82
2019-04-04 15:00:00 8.1 8 Sudoeste 27 Sur 0 -- -- 82
2019-04-04 14:00:00 7.7 8 Sur 28 Oeste 0 -- -- 78
2019-04-04 13:00:00 8.3 7 Sur 31 Noroeste 0 -- -- 72
2019-04-04 12:00:00 7.7 5 Sudoeste 26 Sur 0 -- -- 76
2019-04-04 11:00:00 6.7 6 Sur 23 Sur 0 -- -- 80
2019-04-04 10:00:00 5.2 3 Sudoeste 11 Sudoeste 0 -- -- 85
2019-04-04 09:00:00 3.3 0 Calma 5 Noroeste 0 -- -- 88
2019-04-04 08:00:00 2.9 0 Calma 6 Sur 0 -- -- 91
2019-04-04 07:00:00 3.3 2 Oeste 9 Oeste 0 -- -- 91
2019-04-04 06:00:00 2.7 0 Calma 3 Oeste 0 -- -- 92
2019-04-04 05:00:00 3 2 Noroeste 6 Oeste 0 -- -- 92
2019-04-04 04:00:00 2.5 0 Calma 3 Oeste 0 -- -- 94
2019-04-04 03:00:00 3.1 3 Este 7 Nordeste 0 -- -- 93
2019-04-04 02:00:00 2.8 0 Calma 5 Noroeste 0 -- -- 94
2019-04-04 01:00:00 2.4 0 Calma 3 Noroeste 0 -- -- 95
2019-04-04 00:00:00 3 0 Calma 14 Noroeste 0 -- -- 94
2019-04-03 23:00:00 3.2 0 Calma 5 Sudoeste 0 -- -- 94
2019-04-03 22:00:00 2.6 0 Calma 31 Noroeste 0.4 -- -- 92
2019-04-03 21:00:00 5.2 7 Noroeste 17 Noroeste 0 -- -- 79
2019-04-03 20:00:00 7 10 Noroeste 31 Noroeste 0 -- -- 70
2019-04-03 19:00:00 9.1 17 Noroeste 32 Noroeste 0 -- -- 58
2019-04-03 18:00:00 7.9 9 Noroeste 31 Noroeste 0 -- -- 71
2019-04-03 17:00:00 10.8 17 Noroeste 33 Noroeste 0 -- -- 52
2019-04-03 16:00:00 7.3 5 Noroeste 38 Noroeste 0.6 -- -- 89
2019-04-03 15:00:00 8.9 13 Noroeste 36 Noroeste 0 -- -- 68
2019-04-03 14:00:00 8.4 11 Noroeste 27 Norte 0 -- -- 83
2019-04-03 13:00:00 7 14 Noroeste 30 Noroeste 0.4 -- -- 85
2019-04-03 12:00:00 6.2 9 Noroeste 23 Noroeste 0.2 -- -- 86
2019-04-03 11:00:00 5.8 12 Noroeste 20 Noroeste 0 -- -- 90
2019-04-03 10:00:00 5.3 3 Oeste 8 Oeste 0 -- -- 95
2019-04-03 09:00:00 3.9 0 Calma 4 Noroeste 0 -- -- 98
2019-04-03 08:00:00 3.5 2 Noroeste 6 Noroeste 0 -- -- 98
2019-04-03 07:00:00 4.2 5 Noroeste 10 Oeste 0.4 -- -- 97
2019-04-03 06:00:00 4.5 3 Oeste 10 Noroeste 0 -- -- 96
2019-04-03 05:00:00 4.6 0 Calma 16 Noroeste 0.2 -- -- 95
2019-04-03 04:00:00 4.9 2 Noroeste 8 Noroeste 0 -- -- 93
2019-04-03 03:00:00 4.7 0 Calma 3 Noroeste 0 -- -- 93
2019-04-03 02:00:00 5.5 0 Calma 10 Noroeste 0 -- -- 89
2019-04-03 01:00:00 6.8 4 Noroeste 9 Noroeste 0 -- -- 86
2019-04-03 00:00:00 7 2 Noroeste 13 Nordeste 0 -- -- 87
2019-04-02 23:00:00 7.3 4 Norte 15 Norte 0 -- -- 84
2019-04-02 22:00:00 7.6 4 Noroeste 16 Noroeste 0 -- -- 81
2019-04-02 21:00:00 8.3 6 Noroeste 15 Noroeste 0 -- -- 73
2019-04-02 20:00:00 9.9 5 Norte 16 Norte 0 -- -- 69
2019-04-02 19:00:00 11.8 5 Noroeste 16 Noroeste 0 -- -- 66
2019-04-02 18:00:00 12.3 8 Noroeste 20 Nordeste 0 -- -- 62
2019-04-02 17:00:00 14.2 10 Noroeste 21 Noroeste 0 -- -- 64
2019-04-02 16:00:00 12.9 9 Noroeste 20 Noroeste 0 -- -- 67
2019-04-02 15:00:00 13.6 8 Noroeste 20 Noroeste 0 -- -- 68
2019-04-02 14:00:00 13.6 4 Noroeste 16 Noroeste 0 -- -- 62
2019-04-02 13:00:00 15 5 Sudeste 16 Este 0 -- -- 54
2019-04-02 12:00:00 12.1 5 Sudeste 13 Este 0 -- -- 69
2019-04-02 11:00:00 9.7 3 Este 9 Sudeste 0 -- -- 82
2019-04-02 10:00:00 8.4 3 Sudeste 7 Sudeste 0 -- -- 87
2019-04-02 09:00:00 7.9 2 Este 6 Este 0 -- -- 91
2019-04-02 08:00:00 7.4 0 Calma 5 Sudeste 0 -- -- 94
2019-04-02 07:00:00 7.2 0 Calma 6 Nordeste 0 -- -- 95
2019-04-02 06:00:00 6.9 2 Sudeste 8 Este 0 -- -- 96
2019-04-02 05:00:00 7.3 0 Calma 4 Noroeste 0 -- -- 96
2019-04-02 04:00:00 7.3 0 Calma 5 Oeste 0 -- -- 96
2019-04-02 03:00:00 6 2 Oeste 9 Noroeste 0 -- -- 94
2019-04-02 02:00:00 8.4 0 Calma 3 Este 0 -- -- 90
2019-04-02 01:00:00 8.6 0 Calma 3 Nordeste 0 -- -- 84
2019-04-02 00:00:00 9.6 0 Calma 9 Este 0 -- -- 82
2019-04-01 23:00:00 10.7 0 Calma 5 Noroeste 0 -- -- 79
2019-04-01 22:00:00 11.3 0 Calma 12 Noroeste 0 -- -- 79
2019-04-01 21:00:00 12.6 5 Noroeste 18 Noroeste 0 -- -- 75
2019-04-01 20:00:00 16.9 6 Noroeste 15 Noroeste 0 -- -- 54
2019-04-01 19:00:00 17.7 8 Noroeste 17 Noroeste 0 -- -- 55
2019-04-01 18:00:00 19.4 6 Noroeste 18 Noroeste 0 -- -- 45
2019-04-01 17:00:00 21 6 Noroeste 19 Norte 0 -- -- 33
2019-04-01 16:00:00 20.5 8 Noroeste 17 Nordeste 0 -- -- 33
2019-04-01 15:00:00 19.8 8 Norte 19 Norte 0 -- -- 37
2019-04-01 14:00:00 20.5 5 Norte 17 Sudeste 0 -- -- 43
2019-04-01 13:00:00 19.4 7 Sudeste 23 Sudeste 0 -- -- 41
2019-04-01 12:00:00 17.5 11 Sudeste 21 Este 0 -- -- 46
2019-04-01 11:00:00 15.3 10 Sudeste 19 Sudeste 0 -- -- 52
2019-04-01 10:00:00 12.5 0 Calma 4 Noroeste 0 -- -- 59
2019-04-01 09:00:00 6.9 3 Noroeste 20 Sudeste 0 -- -- 77
2019-04-01 08:00:00 8.7 13 Sudeste 20 Sudeste 0 -- -- 68
2019-04-01 07:00:00 9.6 13 Sudeste 20 Sudeste 0 -- -- 64
2019-04-01 06:00:00 9.3 13 Sudeste 24 Este 0 -- -- 65
2019-04-01 05:00:00 8.2 15 Sudeste 23 Sudeste 0 -- -- 67
2019-04-01 04:00:00 9.8 13 Sudeste 23 Sudeste 0 -- -- 61
2019-04-01 03:00:00 10 15 Sudeste 24 Este 0 -- -- 63
2019-04-01 02:00:00 10.2 18 Sudeste 26 Sudeste 0 -- -- 64
2019-04-01 01:00:00 10 12 Sudeste 18 Sudeste 0 -- -- 65
2019-04-01 00:00:00 10.2 10 Este 18 Este 0 -- -- 69
2019-03-31 23:00:00 11.3 2 Noroeste 17 Sudeste 0 -- -- 64
2019-03-31 22:00:00 11.7 8 Sudeste 17 Sudeste 0 -- -- 66
2019-03-31 21:00:00 12.4 0 Calma 10 Nordeste 0 -- -- 64
2019-03-31 20:00:00 16.4 4 Norte 17 Norte 0 -- -- 50
2019-03-31 19:00:00 17.2 7 Nordeste 20 Nordeste 0 -- -- 50
2019-03-31 18:00:00 17.9 6 Noroeste 15 Sur 0 -- -- 40
2019-03-31 17:00:00 17.3 4 Sur 20 Sudoeste 0 -- -- 43
2019-03-31 16:00:00 17.1 8 Noroeste 27 Noroeste 0 -- -- 41
2019-03-31 15:00:00 16.4 14 Este 34 Este 0 -- -- 43
2019-03-31 14:00:00 19.9 6 Norte 15 Norte 0 -- -- 52
2019-03-31 13:00:00 19.9 8 Sudeste 15 Sudeste 0 -- -- 38
2019-03-31 12:00:00 18.7 8 Sudeste 11 Sudeste 0 -- -- 41
2019-03-31 11:00:00 14.9 6 Este 17 Sudeste 0 -- -- 52
2019-03-31 10:00:00 12.1 6 Sudeste 16 Sudeste 0 -- -- 55
2019-03-31 09:00:00 8.9 5 Sudeste 11 Sudeste 0 -- -- 62
2019-03-31 08:00:00 6.7 10 Sudeste 14 Este 0 -- -- 71
2019-03-31 07:00:00 7.6 9 Sudeste 13 Sudeste 0 -- -- 67
2019-03-31 06:00:00 6.4 6 Este 12 Este 0 -- -- 74
2019-03-31 05:00:00 7.7 7 Este 11 Este 0 -- -- 69
2019-03-31 03:00:00 7.9 3 Este 12 Este 0 -- -- 72
2019-03-31 01:00:00 9.5 0 Calma 9 Sudeste 0 -- -- 68
2019-03-31 00:00:00 10.2 0 Calma 8 Este 0 -- -- 63
2019-03-30 23:00:00 11.1 0 Calma 4 Sudeste 0 -- -- 62
2019-03-30 22:00:00 11.7 3 Sudeste 5 Sudeste 0 -- -- 63
2019-03-30 21:00:00 12.1 0 Calma 8 Nordeste 0 -- -- 48
2019-03-30 20:00:00 13.8 3 Noroeste 12 Noroeste 0 -- -- 41
2019-03-30 19:00:00 16.8 8 Noroeste 22 Noroeste 0 -- -- 35
2019-03-30 18:00:00 18.9 13 Noroeste 26 Noroeste 0 -- -- 35
2019-03-30 17:00:00 20.1 14 Noroeste 27 Noroeste 0 -- -- 30
2019-03-30 16:00:00 20.7 11 Noroeste 30 Noroeste 0 -- -- 29
2019-03-30 15:00:00 20.1 13 Noroeste 30 Noroeste 0 -- -- 36
2019-03-30 14:00:00 20 9 Noroeste 23 Noroeste 0 -- -- 32
2019-03-30 13:00:00 19.1 9 Noroeste 19 Noroeste 0 -- -- 40
2019-03-30 12:00:00 19.8 6 Noroeste 13 Noroeste 0 -- -- 35
2019-03-30 11:00:00 18.7 3 Noroeste 8 Noroeste 0 -- -- 36
2019-03-30 10:00:00 18.7 2 Sur 9 Este 0 -- -- 42
2019-03-30 09:00:00 12.9 6 Este 12 Este 0 -- -- 46
2019-03-30 08:00:00 8.6 6 Sudeste 13 Este 0 -- -- 55
2019-03-30 07:00:00 8.1 6 Este 12 Este 0 -- -- 55
2019-03-30 06:00:00 7.9 6 Este 14 Este 0 -- -- 55
2019-03-30 05:00:00 7.1 10 Este 14 Nordeste 0 -- -- 58
2019-03-30 04:00:00 7.1 11 Este 14 Este 0 -- -- 59
2019-03-30 03:00:00 8 9 Este 15 Este 0 -- -- 57
2019-03-30 02:00:00 9.5 9 Este 19 Este 0 -- -- 52
2019-03-30 01:00:00 10.5 10 Este 17 Sudeste 0 -- -- 51
2019-03-30 00:00:00 10.4 10 Sudeste 17 Sudeste 0 -- -- 50
2019-03-29 23:00:00 10.6 5 Este 8 Este 0 -- -- 51
2019-03-29 22:00:00 11.9 0 Calma 5 Noroeste 0 -- -- 46
2019-03-29 21:00:00 12.7 0 Calma 6 Oeste 0 -- -- 44
2019-03-29 20:00:00 14.2 3 Noroeste 12 Noroeste 0 -- -- 46
2019-03-29 19:00:00 17.1 6 Noroeste 16 Oeste 0 -- -- 40
2019-03-29 18:00:00 20.3 5 Noroeste 27 Sudoeste 0 -- -- 36
2019-03-29 17:00:00 21 9 Noroeste 25 Noroeste 0 -- -- 36
2019-03-29 16:00:00 21.2 14 Noroeste 32 Noroeste 0 -- -- 36
2019-03-29 15:00:00 21 12 Noroeste 24 Noroeste 0 -- -- 37
2019-03-29 14:00:00 20.8 8 Noroeste 19 Noroeste 0 -- -- 37
2019-03-29 13:00:00 20.2 9 Noroeste 17 Noroeste 0 -- -- 44
2019-03-29 12:00:00 21.8 5 Sur 16 Sudeste 0 -- -- 30
2019-03-29 11:00:00 18.3 12 Sudeste 21 Sudeste 0 -- -- 37
2019-03-29 10:00:00 15.5 12 Sudeste 19 Sudeste 0 -- -- 43
2019-03-29 09:00:00 12.7 12 Sudeste 16 Sudeste 0 -- -- 48
2019-03-29 08:00:00 9.5 10 Sudeste 17 Sudeste 0 -- -- 58
2019-03-29 07:00:00 9.3 10 Sudeste 16 Sudeste 0 -- -- 62
2019-03-29 06:00:00 8.4 4 Sudeste 9 Sudeste 0 -- -- 68
2019-03-29 05:00:00 8.5 2 Sur 18 Sudeste 0 -- -- 70
2019-03-29 04:00:00 9.7 9 Sudeste 22 Sudeste 0 -- -- 66
2019-03-29 03:00:00 10 13 Sudeste 26 Sudeste 0 -- -- 66
2019-03-29 02:00:00 9.4 11 Sudeste 24 Sur 0 -- -- 74
2019-03-29 01:00:00 8.2 6 Sudeste 16 Este 0 -- -- 78
2019-03-29 00:00:00 9.4 4 Sur 13 Sudeste 0 -- -- 75
2019-03-28 23:00:00 10.8 7 Sudeste 17 Sudeste 0 -- -- 69
2019-03-28 22:00:00 11.8 6 Sudeste 22 Sudeste 0 -- -- 66
2019-03-28 21:00:00 13.1 10 Sudeste 16 Sudeste 0 -- -- 61
2019-03-28 20:00:00 15.2 0 Calma 10 Norte 0 -- -- 51
2019-03-28 19:00:00 20.3 5 Este 18 Este 0 -- -- 37
2019-03-28 18:00:00 22.9 5 Nordeste 21 Norte 0 -- -- 35
2019-03-28 17:00:00 24.3 5 Norte 19 Norte 0 -- -- 32
2019-03-28 16:00:00 23.5 6 Sudeste 16 Noroeste 0 -- -- 27
2019-03-28 15:00:00 22.9 5 Norte 15 Norte 0 -- -- 31
2019-03-28 14:00:00 21.5 7 Norte 18 Noroeste 0 -- -- 32
2019-03-28 13:00:00 20.8 6 Norte 13 Sudeste 0 -- -- 36
2019-03-28 12:00:00 19.8 7 Sudeste 18 Este 0 -- -- 38
2019-03-28 11:00:00 16.9 12 Sudeste 23 Sudeste 0 -- -- 40
2019-03-28 10:00:00 13.9 12 Sudeste 20 Sudeste 0 -- -- 46
2019-03-28 09:00:00 9.9 12 Sudeste 21 Sudeste 0 -- -- 56
2019-03-28 08:00:00 6.9 3 Sudeste 17 Sudeste 0 -- -- 67
2019-03-28 07:00:00 6.8 8 Sudeste 22 Sudeste 0 -- -- 66
2019-03-28 06:00:00 7.8 12 Sudeste 24 Sudeste 0 -- -- 66
2019-03-28 05:00:00 8.2 14 Sudeste 24 Sudeste 0 -- -- 62
2019-03-28 04:00:00 7.9 15 Sudeste 22 Sudeste 0 -- -- 65
2019-03-28 03:00:00 7.8 11 Sudeste 23 Sudeste 0 -- -- 67
2019-03-28 02:00:00 7.7 12 Sudeste 20 Sudeste 0 -- -- 70
2019-03-28 01:00:00 7.6 13 Sudeste 23 Este 0 -- -- 71
2019-03-28 00:00:00 7.6 11 Sudeste 18 Sudeste 0 -- -- 72
2019-03-27 23:00:00 8.4 5 Sudeste 20 Este 0 -- -- 68
2019-03-27 22:00:00 9.8 6 Sudeste 16 Sudeste 0 -- -- 63
2019-03-27 21:00:00 11.8 10 Sudeste 26 Sudeste 0 -- -- 57
2019-03-27 20:00:00 13.6 8 Sudeste 17 Sudeste 0 -- -- 53
2019-03-27 19:00:00 20.6 4 Nordeste 15 Este 0 -- -- 38
2019-03-27 18:00:00 22.3 6 Este 22 Este 0 -- -- 30
2019-03-27 17:00:00 23.1 9 Nordeste 23 Norte 0 -- -- 26
2019-03-27 16:00:00 24.2 5 Este 19 Nordeste 0 -- -- 21
2019-03-27 15:00:00 22.7 8 Sudeste 22 Sur 0 -- -- 19
2019-03-27 14:00:00 22.1 6 Sudeste 23 Sur 0 -- -- 17
2019-03-27 13:00:00 20.1 12 Sur 24 Este 0 -- -- 18
2019-03-27 12:00:00 18.5 13 Sur 31 Sudeste 0 -- -- 19
2019-03-27 11:00:00 16.7 12 Sudeste 30 Sudeste 0 -- -- 20
2019-03-27 10:00:00 13.7 19 Sudeste 29 Sudeste 0 -- -- 25
2019-03-27 09:00:00 8.2 14 Sudeste 25 Este 0 -- -- 44
2019-03-27 08:00:00 4.4 9 Sudeste 14 Sudeste 0 -- -- 54
2019-03-27 07:00:00 4.6 6 Sudeste 11 Sudeste 0 -- -- 57
2019-03-27 06:00:00 4.9 3 Sudeste 8 Sudeste 0 -- -- 60
2019-03-27 05:00:00 4.6 0 Calma 4 Sudeste 0 -- -- 77
2019-03-27 04:00:00 4.4 2 Este 6 Este 0 -- -- 79
2019-03-27 03:00:00 5 3 Noroeste 7 Sudeste 0 -- -- 66
2019-03-27 02:00:00 6.4 4 Noroeste 19 Sudeste 0 -- -- 66
2019-03-27 01:00:00 7.1 6 Sudeste 31 Sudeste 0 -- -- 65
2019-03-27 00:00:00 7.9 14 Sudeste 30 Este 0 -- -- 70